TimeCST,TemperatureF,Dew PointF,Humidity,Sea Level PressureIn,VisibilityMPH,Wind Direction,Wind SpeedMPH,Gust SpeedMPH,PrecipitationIn,Events,Conditions,WindDirDegrees,DateUTC
12:15 AM,36.0,31.5,84,30.41,10.0,NNW,8.1,-,N/A,,Clear,330,2012-11-16 06:15:00
12:35 AM,34.7,30.7,85,30.41,10.0,NW,8.1,-,N/A,,Clear,320,2012-11-16 06:35:00
12:55 AM,32.9,30.9,92,30.42,10.0,NNW,8.1,-,N/A,,Clear,330,2012-11-16 06:55:00
1:15 AM,33.4,31.6,93,30.42,10.0,NNW,10.4,-,N/A,,Clear,330,2012-11-16 07:15:00
1:35 AM,33.3,31.3,92,30.42,10.0,NNW,6.9,-,N/A,,Clear,330,2012-11-16 07:35:00
1:55 AM,32.7,30.9,93,30.43,10.0,NW,5.8,-,N/A,,Clear,320,2012-11-16 07:55:00
2:15 AM,32.0,30.2,93,30.43,10.0,NW,5.8,-,N/A,,Clear,320,2012-11-16 08:15:00
2:35 AM,31.6,29.5,92,30.43,10.0,NW,4.6,-,N/A,,Clear,320,2012-11-16 08:35:00
2:55 AM,30.9,28.9,92,30.43,10.0,NW,5.8,-,N/A,,Clear,320,2012-11-16 08:55:00
3:15 AM,30.6,28.4,92,30.44,10.0,NW,4.6,-,N/A,,Clear,310,2012-11-16 09:15:00
3:35 AM,30.6,28.8,93,30.43,10.0,NW,5.8,-,N/A,,Clear,320,2012-11-16 09:35:00
3:55 AM,29.8,27.9,92,30.44,10.0,NW,4.6,-,N/A,,Clear,310,2012-11-16 09:55:00
4:15 AM,30.0,28.2,93,30.43,10.0,NW,5.8,-,N/A,,Clear,320,2012-11-16 10:15:00
4:35 AM,28.6,26.8,93,30.43,7.0,NW,5.8,-,N/A,,Clear,320,2012-11-16 10:35:00
4:55 AM,28.8,27.0,93,30.44,10.0,NW,4.6,-,N/A,,Clear,320,2012-11-16 10:55:00
5:15 AM,28.4,26.6,93,30.44,10.0,NW,4.6,-,N/A,,Clear,310,2012-11-16 11:15:00
5:35 AM,27.9,26.2,94,30.44,7.0,NW,5.8,-,N/A,,Clear,310,2012-11-16 11:35:00
5:55 AM,27.5,25.7,93,30.44,10.0,NW,4.6,-,N/A,,Clear,310,2012-11-16 11:55:00
6:15 AM,27.3,25.7,94,30.44,10.0,NW,3.5,-,N/A,,Clear,310,2012-11-16 12:15:00
6:35 AM,27.0,25.3,94,30.44,7.0,Calm,Calm,-,N/A,,Clear,0,2012-11-16 12:35:00
6:55 AM,25.9,24.3,94,30.45,7.0,NW,3.5,-,N/A,,Clear,310,2012-11-16 12:55:00
7:15 AM,26.4,24.8,94,30.45,7.0,Calm,Calm,-,N/A,,Clear,0,2012-11-16 13:15:00
7:35 AM,27.1,25.5,94,30.46,7.0,Calm,Calm,-,N/A,,Clear,0,2012-11-16 13:35:00
7:55 AM,29.1,27.0,92,30.46,7.0,West,3.5,-,N/A,,Clear,280,2012-11-16 13:55:00
8:15 AM,30.4,27.7,90,30.46,7.0,Calm,Calm,-,N/A,,Clear,0,2012-11-16 14:15:00
8:35 AM,32.0,28.8,88,30.46,10.0,Calm,Calm,-,N/A,,Clear,0,2012-11-16 14:35:00
8:55 AM,33.3,29.3,85,30.46,10.0,NW,3.5,-,N/A,,Clear,310,2012-11-16 14:55:00
9:15 AM,34.7,29.3,81,30.47,10.0,Calm,Calm,-,N/A,,Clear,0,2012-11-16 15:15:00
9:35 AM,36.3,30.0,78,30.47,10.0,Calm,Calm,-,N/A,,Clear,0,2012-11-16 15:35:00
9:55 AM,39.2,31.3,73,30.47,10.0,Calm,Calm,-,N/A,,Clear,0,2012-11-16 15:55:00
10:15 AM,41.7,32.0,68,30.47,10.0,Calm,Calm,-,N/A,,Clear,0,2012-11-16 16:15:00
10:35 AM,44.2,32.4,63,30.47,10.0,Calm,Calm,-,N/A,,Clear,0,2012-11-16 16:35:00
10:55 AM,45.9,32.9,61,30.47,10.0,SSW,3.5,-,N/A,,Clear,200,2012-11-16 16:55:00
11:15 AM,47.5,33.8,59,30.47,10.0,Calm,Calm,-,N/A,,Clear,0,2012-11-16 17:15:00
11:35 AM,48.2,34.0,58,30.46,10.0,SSW,3.5,-,N/A,,Clear,210,2012-11-16 17:35:00
11:55 AM,49.5,34.5,56,30.46,10.0,West,3.5,-,N/A,,Clear,270,2012-11-16 17:55:00
12:15 PM,49.8,34.7,56,30.46,10.0,WSW,3.5,-,N/A,,Clear,240,2012-11-16 18:15:00
12:35 PM,50.9,34.9,54,30.45,10.0,Calm,Calm,-,N/A,,Clear,0,2012-11-16 18:35:00
12:55 PM,51.3,35.4,55,30.45,10.0,Calm,Calm,-,N/A,,Clear,0,2012-11-16 18:55:00
1:15 PM,53.4,35.4,51,30.44,10.0,Calm,Calm,-,N/A,,Clear,0,2012-11-16 19:15:00
1:35 PM,54.5,34.9,48,30.43,10.0,West,3.5,-,N/A,,Clear,280,2012-11-16 19:35:00
1:55 PM,54.9,34.9,47,30.42,10.0,Calm,Calm,-,N/A,,Clear,0,2012-11-16 19:55:00
2:15 PM,55.8,34.3,44,30.42,10.0,Calm,Calm,-,N/A,,Clear,0,2012-11-16 20:15:00
2:35 PM,55.8,34.2,44,30.42,10.0,Calm,Calm,-,N/A,,Clear,0,2012-11-16 20:35:00
2:55 PM,55.6,32.5,42,30.41,10.0,Calm,Calm,-,N/A,,Clear,0,2012-11-16 20:55:00
3:15 PM,55.6,32.9,42,30.41,10.0,Calm,Calm,-,N/A,,Clear,0,2012-11-16 21:15:00
3:35 PM,55.4,33.3,43,30.41,10.0,Calm,Calm,-,N/A,,Clear,0,2012-11-16 21:35:00
3:55 PM,55.2,33.6,44,30.41,10.0,Calm,Calm,-,N/A,,Clear,0,2012-11-16 21:55:00
4:15 PM,53.6,33.3,46,30.41,10.0,Calm,Calm,-,N/A,,Clear,0,2012-11-16 22:15:00
4:35 PM,52.0,32.9,48,30.41,10.0,Calm,Calm,-,N/A,,Clear,0,2012-11-16 22:35:00
4:55 PM,50.0,32.5,51,30.41,10.0,Calm,Calm,-,N/A,,Clear,0,2012-11-16 22:55:00
5:15 PM,48.6,32.5,54,30.40,10.0,Calm,Calm,-,N/A,,Clear,0,2012-11-16 23:15:00
5:35 PM,46.0,32.9,60,30.41,10.0,ESE,3.5,-,N/A,,Clear,110,2012-11-16 23:35:00
5:55 PM,45.0,32.5,62,30.40,10.0,ESE,3.5,-,N/A,,Clear,110,2012-11-16 23:55:00
6:15 PM,44.2,32.2,63,30.40,10.0,ESE,3.5,-,N/A,,Clear,110,2012-11-17 00:15:00
6:35 PM,43.5,32.2,64,30.40,10.0,ESE,3.5,-,N/A,,Clear,110,2012-11-17 00:35:00
6:55 PM,42.8,32.0,66,30.39,10.0,ESE,4.6,-,N/A,,Clear,110,2012-11-17 00:55:00
7:15 PM,41.9,32.0,68,30.39,10.0,ESE,4.6,-,N/A,,Clear,120,2012-11-17 01:15:00
7:55 PM,41.5,32.0,69,30.39,10.0,ESE,5.8,-,N/A,,Clear,110,2012-11-17 01:55:00
8:15 PM,41.2,32.0,70,30.39,10.0,ESE,4.6,-,N/A,,Clear,120,2012-11-17 02:15:00
8:35 PM,40.3,31.8,72,30.39,10.0,ESE,3.5,-,N/A,,Clear,120,2012-11-17 02:35:00
8:55 PM,39.6,32.0,74,30.39,10.0,ESE,4.6,-,N/A,,Clear,120,2012-11-17 02:55:00
9:15 PM,38.8,31.3,74,30.39,10.0,ESE,4.6,-,N/A,,Clear,120,2012-11-17 03:15:00
9:55 PM,38.8,31.8,76,30.39,10.0,SE,3.5,-,N/A,,Clear,130,2012-11-17 03:55:00
10:15 PM,38.1,32.0,79,30.39,7.0,SE,4.6,-,N/A,,Clear,130,2012-11-17 04:15:00
10:35 PM,38.5,32.0,78,30.39,10.0,SE,4.6,-,N/A,,Clear,130,2012-11-17 04:35:00
10:55 PM,39.2,32.0,75,30.39,10.0,SE,4.6,-,N/A,,Clear,140,2012-11-17 04:55:00
11:15 PM,37.6,32.0,80,30.40,10.0,SE,4.6,-,N/A,,Clear,130,2012-11-17 05:15:00
11:35 PM,38.1,32.0,79,30.40,10.0,SE,4.6,-,N/A,,Clear,130,2012-11-17 05:35:00
11:55 PM,38.3,32.0,78,30.40,10.0,SE,5.8,-,N/A,,Clear,130,2012-11-17 05:55:00